sensor_id;sensor_type;location;lat;lon;timestamp;pressure;altitude;pressure_sealevel;temperature;humidity
68179;BME280;69812;42.632;23.440;2024-01-15T00:01:11;94587.97;;;-9.83;97.68
68179;BME280;69812;42.632;23.440;2024-01-15T00:03:37;94570.94;;;-10.03;97.44
68179;BME280;69812;42.632;23.440;2024-01-15T00:06:02;94557.88;;;-10.16;97.48
68179;BME280;69812;42.632;23.440;2024-01-15T00:08:28;94574.84;;;-9.89;97.57
68179;BME280;69812;42.632;23.440;2024-01-15T00:10:53;94593.88;;;-9.90;97.54
68179;BME280;69812;42.632;23.440;2024-01-15T00:13:18;94593.25;;;-10.01;97.47
68179;BME280;69812;42.632;23.440;2024-01-15T00:15:44;94567.72;;;-10.08;97.64
68179;BME280;69812;42.632;23.440;2024-01-15T00:18:09;94577.56;;;-10.05;97.56
68179;BME280;69812;42.632;23.440;2024-01-15T00:20:37;94568.19;;;-9.89;97.66
68179;BME280;69812;42.632;23.440;2024-01-15T00:23:03;94566.69;;;-9.06;98.19
68179;BME280;69812;42.632;23.440;2024-01-15T00:25:28;94589.53;;;-9.31;98.21
68179;BME280;69812;42.632;23.440;2024-01-15T00:27:54;94571.09;;;-9.65;98.23
68179;BME280;69812;42.632;23.440;2024-01-15T00:30:19;94569.78;;;-9.83;98.27
68179;BME280;69812;42.632;23.440;2024-01-15T00:32:45;94573.22;;;-9.90;98.27
68179;BME280;69812;42.632;23.440;2024-01-15T00:35:10;94591.66;;;-10.05;98.13
68179;BME280;69812;42.632;23.440;2024-01-15T00:37:35;94582.22;;;-9.85;97.81
68179;BME280;69812;42.632;23.440;2024-01-15T00:40:01;94575.56;;;-9.83;97.53
68179;BME280;69812;42.632;23.440;2024-01-15T00:42:26;94564.72;;;-9.77;97.61
68179;BME280;69812;42.632;23.440;2024-01-15T00:44:52;94584.50;;;-9.74;98.10
68179;BME280;69812;42.632;23.440;2024-01-15T00:47:19;94571.47;;;-9.87;98.49
68179;BME280;69812;42.632;23.440;2024-01-15T00:49:44;94558.06;;;-9.77;99.04
68179;BME280;69812;42.632;23.440;2024-01-15T00:52:10;94579.72;;;-9.83;98.99
68179;BME280;69812;42.632;23.440;2024-01-15T00:54:35;94566.78;;;-10.02;98.78
68179;BME280;69812;42.632;23.440;2024-01-15T00:57:04;94564.47;;;-10.13;98.77
68179;BME280;69812;42.632;23.440;2024-01-15T00:59:29;94580.03;;;-10.03;98.65
68179;BME280;69812;42.632;23.440;2024-01-15T01:01:55;94563.03;;;-10.28;98.51
68179;BME280;69812;42.632;23.440;2024-01-15T01:04:20;94562.34;;;-10.33;98.61
68179;BME280;69812;42.632;23.440;2024-01-15T01:06:46;94571.97;;;-10.18;98.67
68179;BME280;69812;42.632;23.440;2024-01-15T01:09:11;94563.19;;;-10.34;98.62
68179;BME280;69812;42.632;23.440;2024-01-15T01:11:36;94572.91;;;-10.23;98.78
68179;BME280;69812;42.632;23.440;2024-01-15T01:14:02;94543.91;;;-10.21;98.99
68179;BME280;69812;42.632;23.440;2024-01-15T01:16:28;94570.31;;;-10.17;98.93
68179;BME280;69812;42.632;23.440;2024-01-15T01:18:53;94578.59;;;-10.17;98.80
68179;BME280;69812;42.632;23.440;2024-01-15T01:21:19;94567.31;;;-10.35;98.62
68179;BME280;69812;42.632;23.440;2024-01-15T01:23:44;94578.03;;;-10.32;98.34
68179;BME280;69812;42.632;23.440;2024-01-15T01:26:09;94546.09;;;-10.54;97.88
68179;BME280;69812;42.632;23.440;2024-01-15T01:28:35;94561.34;;;-10.24;98.50
68179;BME280;69812;42.632;23.440;2024-01-15T01:31:00;94563.94;;;-10.29;98.38
68179;BME280;69812;42.632;23.440;2024-01-15T01:33:28;94550.06;;;-10.41;98.37
68179;BME280;69812;42.632;23.440;2024-01-15T01:35:54;94541.88;;;-10.47;98.55
68179;BME280;69812;42.632;23.440;2024-01-15T01:38:19;94549.53;;;-10.63;98.14
68179;BME280;69812;42.632;23.440;2024-01-15T01:40:44;94557.16;;;-10.75;98.21
68179;BME280;69812;42.632;23.440;2024-01-15T01:43:10;94545.75;;;-10.87;98.20
68179;BME280;69812;42.632;23.440;2024-01-15T01:45:36;94566.22;;;-10.71;98.21
68179;BME280;69812;42.632;23.440;2024-01-15T01:48:01;94557.09;;;-10.70;98.14
68179;BME280;69812;42.632;23.440;2024-01-15T01:50:29;94529.13;;;-10.80;98.07
68179;BME280;69812;42.632;23.440;2024-01-15T01:52:55;94546.38;;;-10.71;97.97
68179;BME280;69812;42.632;23.440;2024-01-15T01:55:21;94532.41;;;-10.78;98.03
68179;BME280;69812;42.632;23.440;2024-01-15T01:57:50;94533.31;;;-10.84;97.88
68179;BME280;69812;42.632;23.440;2024-01-15T02:00:16;94557.25;;;-10.80;97.54
68179;BME280;69812;42.632;23.440;2024-01-15T02:02:42;94552.44;;;-10.92;97.58
68179;BME280;69812;42.632;23.440;2024-01-15T02:05:08;94537.50;;;-10.89;97.62
68179;BME280;69812;42.632;23.440;2024-01-15T02:07:37;94540.81;;;-10.88;97.74
68179;BME280;69812;42.632;23.440;2024-01-15T02:10:02;94534.06;;;-10.77;97.97
68179;BME280;69812;42.632;23.440;2024-01-15T02:12:31;94534.63;;;-10.61;98.47
68179;BME280;69812;42.632;23.440;2024-01-15T02:14:57;94531.19;;;-10.52;98.43
68179;BME280;69812;42.632;23.440;2024-01-15T02:17:22;94521.41;;;-10.60;98.32
68179;BME280;69812;42.632;23.440;2024-01-15T02:19:47;94519.88;;;-10.69;98.21
68179;BME280;69812;42.632;23.440;2024-01-15T02:22:13;94520.72;;;-10.71;98.31
68179;BME280;69812;42.632;23.440;2024-01-15T02:24:38;94519.91;;;-10.70;98.23
68179;BME280;69812;42.632;23.440;2024-01-15T02:27:04;94475.53;;;-10.87;98.42
68179;BME280;69812;42.632;23.440;2024-01-15T02:29:29;94477.13;;;-10.85;98.30
68179;BME280;69812;42.632;23.440;2024-01-15T02:31:55;94492.63;;;-10.69;98.50
68179;BME280;69812;42.632;23.440;2024-01-15T02:34:20;94501.41;;;-10.49;98.82
68179;BME280;69812;42.632;23.440;2024-01-15T02:36:46;94479.09;;;-10.51;98.92
68179;BME280;69812;42.632;23.440;2024-01-15T02:39:11;94445.88;;;-9.97;99.27
68179;BME280;69812;42.632;23.440;2024-01-15T02:41:37;94465.88;;;-9.60;99.56
68179;BME280;69812;42.632;23.440;2024-01-15T02:44:02;94477.47;;;-9.60;100.00
68179;BME280;69812;42.632;23.440;2024-01-15T02:46:28;94463.34;;;-9.58;100.00
68179;BME280;69812;42.632;23.440;2024-01-15T02:48:53;94470.91;;;-9.24;100.00
68179;BME280;69812;42.632;23.440;2024-01-15T02:51:19;94446.28;;;-9.35;100.00
68179;BME280;69812;42.632;23.440;2024-01-15T02:53:44;94450.44;;;-9.34;100.00
68179;BME280;69812;42.632;23.440;2024-01-15T02:56:10;94457.28;;;-9.45;99.79
68179;BME280;69812;42.632;23.440;2024-01-15T02:58:35;94458.44;;;-9.61;99.71
68179;BME280;69812;42.632;23.440;2024-01-15T03:01:00;94454.66;;;-9.81;99.54
68179;BME280;69812;42.632;23.440;2024-01-15T03:03:26;94442.53;;;-9.95;99.19
68179;BME280;69812;42.632;23.440;2024-01-15T03:05:51;94460.59;;;-9.86;99.25
68179;BME280;69812;42.632;23.440;2024-01-15T03:08:18;94465.41;;;-9.79;99.00
68179;BME280;69812;42.632;23.440;2024-01-15T03:10:49;94464.47;;;-9.33;98.65
68179;BME280;69812;42.632;23.440;2024-01-15T03:13:14;94472.66;;;-9.27;98.12
68179;BME280;69812;42.632;23.440;2024-01-15T03:15:40;94476.88;;;-9.31;98.21
68179;BME280;69812;42.632;23.440;2024-01-15T03:18:06;94468.53;;;-8.90;97.40
68179;BME280;69812;42.632;23.440;2024-01-15T03:20:31;94480.53;;;-9.09;97.09
68179;BME280;69812;42.632;23.440;2024-01-15T03:22:56;94444.59;;;-9.33;97.13
68179;BME280;69812;42.632;23.440;2024-01-15T03:25:22;94462.41;;;-9.12;97.19
68179;BME280;69812;42.632;23.440;2024-01-15T03:27:47;94458.38;;;-9.18;97.04
68179;BME280;69812;42.632;23.440;2024-01-15T03:30:13;94437.06;;;-9.28;97.39
68179;BME280;69812;42.632;23.440;2024-01-15T03:32:38;94422.09;;;-9.26;97.78
68179;BME280;69812;42.632;23.440;2024-01-15T03:35:04;94440.94;;;-9.16;97.83
68179;BME280;69812;42.632;23.440;2024-01-15T03:37:32;94444.03;;;-9.06;97.87
68179;BME280;69812;42.632;23.440;2024-01-15T03:39:59;94423.56;;;-9.18;98.05
68179;BME280;69812;42.632;23.440;2024-01-15T03:42:24;94429.59;;;-8.91;98.11
68179;BME280;69812;42.632;23.440;2024-01-15T03:44:50;94398.44;;;-8.37;97.55
68179;BME280;69812;42.632;23.440;2024-01-15T03:47:15;94444.19;;;-8.41;97.40
68179;BME280;69812;42.632;23.440;2024-01-15T03:49:41;94403.91;;;-8.57;96.95
68179;BME280;69812;42.632;23.440;2024-01-15T03:52:06;94411.19;;;-8.16;96.12
68179;BME280;69812;42.632;23.440;2024-01-15T03:54:31;94436.59;;;-8.38;95.92
68179;BME280;69812;42.632;23.440;2024-01-15T03:56:57;94399.66;;;-8.52;95.69
68179;BME280;69812;42.632;23.440;2024-01-15T03:59:22;94414.34;;;-8.42;96.30
68179;BME280;69812;42.632;23.440;2024-01-15T04:01:49;94425.72;;;-8.34;95.90
68179;BME280;69812;42.632;23.440;2024-01-15T04:04:17;94424.69;;;-8.25;95.62
68179;BME280;69812;42.632;23.440;2024-01-15T04:06:42;94433.22;;;-8.35;95.55
68179;BME280;69812;42.632;23.440;2024-01-15T04:09:08;94423.56;;;-8.46;95.70
68179;BME280;69812;42.632;23.440;2024-01-15T04:11:33;94436.84;;;-8.45;95.92
68179;BME280;69812;42.632;23.440;2024-01-15T04:13:59;94427.16;;;-8.56;96.18
68179;BME280;69812;42.632;23.440;2024-01-15T04:16:24;94388.63;;;-8.76;96.30
68179;BME280;69812;42.632;23.440;2024-01-15T04:18:49;94394.91;;;-8.28;96.60
68179;BME280;69812;42.632;23.440;2024-01-15T04:21:17;94412.66;;;-8.40;96.63
68179;BME280;69812;42.632;23.440;2024-01-15T04:23:42;94411.69;;;-8.36;96.80
68179;BME280;69812;42.632;23.440;2024-01-15T04:26:08;94399.72;;;-8.55;97.02
68179;BME280;69812;42.632;23.440;2024-01-15T04:28:33;94426.16;;;-8.51;97.15
68179;BME280;69812;42.632;23.440;2024-01-15T04:30:59;94395.66;;;-8.59;96.57
68179;BME280;69812;42.632;23.440;2024-01-15T04:33:24;94424.75;;;-8.61;96.51
68179;BME280;69812;42.632;23.440;2024-01-15T04:35:50;94421.66;;;-8.69;96.40
68179;BME280;69812;42.632;23.440;2024-01-15T04:38:15;94423.72;;;-8.86;96.16
68179;BME280;69812;42.632;23.440;2024-01-15T04:40:40;94419.88;;;-9.00;95.94
68179;BME280;69812;42.632;23.440;2024-01-15T04:43:06;94408.78;;;-9.24;95.96
68179;BME280;69812;42.632;23.440;2024-01-15T04:45:31;94403.22;;;-9.34;95.83
68179;BME280;69812;42.632;23.440;2024-01-15T04:47:56;94427.25;;;-9.34;95.69
68179;BME280;69812;42.632;23.440;2024-01-15T04:50:23;94414.94;;;-9.39;95.86
68179;BME280;69812;42.632;23.440;2024-01-15T04:52:49;94418.25;;;-9.40;96.05
68179;BME280;69812;42.632;23.440;2024-01-15T04:55:15;94395.56;;;-9.65;96.18
68179;BME280;69812;42.632;23.440;2024-01-15T04:57:40;94410.44;;;-9.63;96.33
68179;BME280;69812;42.632;23.440;2024-01-15T05:00:06;94410.72;;;-9.76;96.62
68179;BME280;69812;42.632;23.440;2024-01-15T05:02:32;94416.69;;;-9.45;96.99
68179;BME280;69812;42.632;23.440;2024-01-15T05:04:57;94390.44;;;-9.56;96.99
68179;BME280;69812;42.632;23.440;2024-01-15T05:07:23;94410.13;;;-9.48;97.16
68179;BME280;69812;42.632;23.440;2024-01-15T05:09:49;94390.34;;;-9.53;97.52
68179;BME280;69812;42.632;23.440;2024-01-15T05:12:15;94378.72;;;-9.51;97.43
68179;BME280;69812;42.632;23.440;2024-01-15T05:14:40;94374.66;;;-9.17;98.23
68179;BME280;69812;42.632;23.440;2024-01-15T05:17:10;94380.41;;;-9.14;98.13
68179;BME280;69812;42.632;23.440;2024-01-15T05:19:35;94359.19;;;-8.93;98.03
68179;BME280;69812;42.632;23.440;2024-01-15T05:22:00;94377.22;;;-8.50;98.45
68179;BME280;69812;42.632;23.440;2024-01-15T05:24:26;94373.28;;;-8.59;98.55
68179;BME280;69812;42.632;23.440;2024-01-15T05:26:51;94347.03;;;-8.69;98.56
68179;BME280;69812;42.632;23.440;2024-01-15T05:29:17;94375.97;;;-8.66;98.08
68179;BME280;69812;42.632;23.440;2024-01-15T05:31:43;94359.34;;;-8.64;98.18
68179;BME280;69812;42.632;23.440;2024-01-15T05:34:08;94380.72;;;-8.26;98.42
68179;BME280;69812;42.632;23.440;2024-01-15T05:36:34;94371.63;;;-8.58;98.37
68179;BME280;69812;42.632;23.440;2024-01-15T05:38:59;94362.34;;;-8.22;97.75
68179;BME280;69812;42.632;23.440;2024-01-15T05:41:25;94374.31;;;-8.35;97.32
68179;BME280;69812;42.632;23.440;2024-01-15T05:43:50;94379.97;;;-8.28;96.74
68179;BME280;69812;42.632;23.440;2024-01-15T05:46:16;94358.34;;;-8.59;96.60
68179;BME280;69812;42.632;23.440;2024-01-15T05:48:41;94354.41;;;-8.68;96.63
68179;BME280;69812;42.632;23.440;2024-01-15T05:51:07;94370.88;;;-8.62;96.85
68179;BME280;69812;42.632;23.440;2024-01-15T05:53:32;94344.84;;;-8.83;96.78
68179;BME280;69812;42.632;23.440;2024-01-15T05:55:57;94350.50;;;-8.76;96.76
68179;BME280;69812;42.632;23.440;2024-01-15T05:58:23;94349.38;;;-8.64;97.05
68179;BME280;69812;42.632;23.440;2024-01-15T06:00:48;94360.63;;;-8.50;96.52
68179;BME280;69812;42.632;23.440;2024-01-15T06:03:15;94352.41;;;-8.53;96.86
68179;BME280;69812;42.632;23.440;2024-01-15T06:05:40;94362.09;;;-8.42;97.54
68179;BME280;69812;42.632;23.440;2024-01-15T06:08:06;94368.22;;;-8.54;97.59
68179;BME280;69812;42.632;23.440;2024-01-15T06:10:31;94377.84;;;-8.42;97.80
68179;BME280;69812;42.632;23.440;2024-01-15T06:12:56;94348.59;;;-8.66;97.08
68179;BME280;69812;42.632;23.440;2024-01-15T06:15:22;94363.03;;;-8.47;97.06
68179;BME280;69812;42.632;23.440;2024-01-15T06:17:47;94364.91;;;-8.23;97.37
68179;BME280;69812;42.632;23.440;2024-01-15T06:20:15;94366.69;;;-7.97;97.64
68179;BME280;69812;42.632;23.440;2024-01-15T06:22:40;94364.78;;;-7.59;97.79
68179;BME280;69812;42.632;23.440;2024-01-15T06:25:07;94352.56;;;-7.39;98.13
68179;BME280;69812;42.632;23.440;2024-01-15T06:27:33;94367.56;;;-6.59;96.93
68179;BME280;69812;42.632;23.440;2024-01-15T06:29:59;94363.47;;;-6.11;93.75
68179;BME280;69812;42.632;23.440;2024-01-15T06:32:24;94369.06;;;-6.05;91.82
68179;BME280;69812;42.632;23.440;2024-01-15T06:34:49;94368.13;;;-6.02;89.46
68179;BME280;69812;42.632;23.440;2024-01-15T06:37:15;94349.75;;;-6.25;89.19
68179;BME280;69812;42.632;23.440;2024-01-15T06:39:42;94342.56;;;-6.34;90.05
68179;BME280;69812;42.632;23.440;2024-01-15T06:42:08;94352.19;;;-6.23;90.40
68179;BME280;69812;42.632;23.440;2024-01-15T06:44:33;94371.84;;;-5.90;90.77
68179;BME280;69812;42.632;23.440;2024-01-15T06:46:58;94379.16;;;-5.17;91.40
68179;BME280;69812;42.632;23.440;2024-01-15T06:49:28;94362.25;;;-4.47;88.82
68179;BME280;69812;42.632;23.440;2024-01-15T06:51:54;94354.16;;;-4.31;82.80
68179;BME280;69812;42.632;23.440;2024-01-15T06:54:20;94359.56;;;-4.22;81.80
68179;BME280;69812;42.632;23.440;2024-01-15T06:56:45;94359.38;;;-4.17;82.13
68179;BME280;69812;42.632;23.440;2024-01-15T06:59:11;94364.34;;;-4.16;82.02
68179;BME280;69812;42.632;23.440;2024-01-15T07:01:36;94371.56;;;-3.89;83.13
68179;BME280;69812;42.632;23.440;2024-01-15T07:04:01;94377.97;;;-3.63;82.75
68179;BME280;69812;42.632;23.440;2024-01-15T07:06:27;94373.28;;;-3.52;82.82
68179;BME280;69812;42.632;23.440;2024-01-15T07:08:52;94360.19;;;-3.58;81.87
68179;BME280;69812;42.632;23.440;2024-01-15T07:11:17;94383.94;;;-3.46;81.66
68179;BME280;69812;42.632;23.440;2024-01-15T07:13:43;94362.47;;;-3.92;81.59
68179;BME280;69812;42.632;23.440;2024-01-15T07:16:08;94356.81;;;-4.36;82.02
68179;BME280;69812;42.632;23.440;2024-01-15T07:18:33;94377.16;;;-4.23;82.47
68179;BME280;69812;42.632;23.440;2024-01-15T07:20:59;94399.53;;;-3.98;82.32
68179;BME280;69812;42.632;23.440;2024-01-15T07:23:28;94399.38;;;-4.14;82.08
68179;BME280;69812;42.632;23.440;2024-01-15T07:25:53;94383.78;;;-4.02;82.90
68179;BME280;69812;42.632;23.440;2024-01-15T07:28:19;94375.22;;;-4.17;82.54
68179;BME280;69812;42.632;23.440;2024-01-15T07:30:44;94371.16;;;-3.99;81.80
68179;BME280;69812;42.632;23.440;2024-01-15T07:33:10;94371.56;;;-3.89;80.04
68179;BME280;69812;42.632;23.440;2024-01-15T07:35:36;94377.72;;;-4.17;81.12
68179;BME280;69812;42.632;23.440;2024-01-15T07:38:01;94375.88;;;-4.11;82.38
68179;BME280;69812;42.632;23.440;2024-01-15T07:40:26;94363.78;;;-4.22;83.09
68179;BME280;69812;42.632;23.440;2024-01-15T07:42:52;94362.03;;;-4.61;83.86
68179;BME280;69812;42.632;23.440;2024-01-15T07:45:17;94346.38;;;-4.46;84.11
68179;BME280;69812;42.632;23.440;2024-01-15T07:47:43;94392.47;;;-4.09;85.13
68179;BME280;69812;42.632;23.440;2024-01-15T07:50:09;94364.38;;;-3.97;84.76
68179;BME280;69812;42.632;23.440;2024-01-15T07:52:35;94390.97;;;-3.74;84.34
68179;BME280;69812;42.632;23.440;2024-01-15T07:55:00;94378.66;;;-3.40;84.44
68179;BME280;69812;42.632;23.440;2024-01-15T07:57:26;94393.00;;;-3.06;80.40
68179;BME280;69812;42.632;23.440;2024-01-15T07:59:51;94393.09;;;-3.26;81.56
68179;BME280;69812;42.632;23.440;2024-01-15T08:02:17;94373.53;;;-3.20;81.14
68179;BME280;69812;42.632;23.440;2024-01-15T08:04:42;94386.16;;;-3.02;81.00
68179;BME280;69812;42.632;23.440;2024-01-15T08:07:08;94386.06;;;-2.82;79.76
68179;BME280;69812;42.632;23.440;2024-01-15T08:09:34;94361.00;;;-2.83;78.32
68179;BME280;69812;42.632;23.440;2024-01-15T08:11:59;94338.03;;;-3.29;79.37
68179;BME280;69812;42.632;23.440;2024-01-15T08:14:25;94365.75;;;-2.77;78.50
68179;BME280;69812;42.632;23.440;2024-01-15T08:16:50;94355.78;;;-2.61;77.96
68179;BME280;69812;42.632;23.440;2024-01-15T08:19:16;94339.09;;;-2.45;75.93
68179;BME280;69812;42.632;23.440;2024-01-15T08:21:41;94367.53;;;-2.44;75.18
68179;BME280;69812;42.632;23.440;2024-01-15T08:24:08;94353.63;;;-2.52;75.43
68179;BME280;69812;42.632;23.440;2024-01-15T08:26:33;94362.78;;;-2.68;77.25
68179;BME280;69812;42.632;23.440;2024-01-15T08:28:59;94359.25;;;-2.81;75.48
68179;BME280;69812;42.632;23.440;2024-01-15T08:31:24;94379.94;;;-2.59;76.73
68179;BME280;69812;42.632;23.440;2024-01-15T08:33:50;94368.63;;;-2.33;74.61
68179;BME280;69812;42.632;23.440;2024-01-15T08:36:15;94359.53;;;-2.35;73.26
68179;BME280;69812;42.632;23.440;2024-01-15T08:38:40;94361.38;;;-2.39;76.15
68179;BME280;69812;42.632;23.440;2024-01-15T08:41:06;94345.88;;;-2.47;73.08
68179;BME280;69812;42.632;23.440;2024-01-15T08:43:33;94353.09;;;-2.58;73.77
68179;BME280;69812;42.632;23.440;2024-01-15T08:45:59;94334.63;;;-2.92;73.92
68179;BME280;69812;42.632;23.440;2024-01-15T08:48:24;94302.94;;;-3.12;74.61
68179;BME280;69812;42.632;23.440;2024-01-15T08:50:53;94322.53;;;-2.84;74.42
68179;BME280;69812;42.632;23.440;2024-01-15T08:53:18;94338.75;;;-2.39;75.16
68179;BME280;69812;42.632;23.440;2024-01-15T08:55:44;94331.53;;;-1.94;73.98
68179;BME280;69812;42.632;23.440;2024-01-15T08:58:09;94307.81;;;-2.39;74.45
68179;BME280;69812;42.632;23.440;2024-01-15T09:00:35;94324.78;;;-1.94;73.80
68179;BME280;69812;42.632;23.440;2024-01-15T09:03:00;94327.19;;;-1.59;72.24
68179;BME280;69812;42.632;23.440;2024-01-15T09:05:26;94337.69;;;-1.51;73.75
68179;BME280;69812;42.632;23.440;2024-01-15T09:07:51;94281.09;;;-1.59;73.51
68179;BME280;69812;42.632;23.440;2024-01-15T09:10:19;94297.50;;;-1.36;73.63
68179;BME280;69812;42.632;23.440;2024-01-15T09:12:45;94313.63;;;-1.09;69.78
68179;BME280;69812;42.632;23.440;2024-01-15T09:15:10;94285.88;;;-1.55;71.73
68179;BME280;69812;42.632;23.440;2024-01-15T09:17:36;94278.09;;;-1.50;71.20
68179;BME280;69812;42.632;23.440;2024-01-15T09:20:01;94262.81;;;-1.63;70.58
68179;BME280;69812;42.632;23.440;2024-01-15T09:22:29;94274.69;;;-1.49;72.81
68179;BME280;69812;42.632;23.440;2024-01-15T09:24:54;94223.41;;;-1.62;70.95
68179;BME280;69812;42.632;23.440;2024-01-15T09:27:20;94262.16;;;-1.35;71.23
68179;BME280;69812;42.632;23.440;2024-01-15T09:29:45;94253.72;;;-1.50;71.11
68179;BME280;69812;42.632;23.440;2024-01-15T09:32:12;94231.81;;;-1.32;71.52
68179;BME280;69812;42.632;23.440;2024-01-15T09:34:38;94216.41;;;-1.57;70.82
68179;BME280;69812;42.632;23.440;2024-01-15T09:37:04;94219.00;;;-1.13;69.59
68179;BME280;69812;42.632;23.440;2024-01-15T09:39:29;94233.88;;;-0.94;70.28
68179;BME280;69812;42.632;23.440;2024-01-15T09:41:56;94210.56;;;-1.12;70.52
68179;BME280;69812;42.632;23.440;2024-01-15T09:44:22;94217.63;;;-0.88;72.78
68179;BME280;69812;42.632;23.440;2024-01-15T09:46:48;94238.63;;;-0.73;72.89
68179;BME280;69812;42.632;23.440;2024-01-15T09:49:17;94211.09;;;-0.62;69.44
68179;BME280;69812;42.632;23.440;2024-01-15T09:51:42;94207.31;;;-0.55;69.36
68179;BME280;69812;42.632;23.440;2024-01-15T09:54:08;94203.06;;;-0.54;68.16
68179;BME280;69812;42.632;23.440;2024-01-15T09:56:34;94209.41;;;-0.47;66.40
68179;BME280;69812;42.632;23.440;2024-01-15T09:59:01;94191.97;;;-0.95;67.78
68179;BME280;69812;42.632;23.440;2024-01-15T10:01:27;94183.50;;;-1.38;69.59
68179;BME280;69812;42.632;23.440;2024-01-15T10:03:54;94191.47;;;-1.46;71.56
68179;BME280;69812;42.632;23.440;2024-01-15T10:06:21;94180.66;;;-1.48;72.09
68179;BME280;69812;42.632;23.440;2024-01-15T10:08:48;94166.97;;;-1.58;73.21
68179;BME280;69812;42.632;23.440;2024-01-15T10:11:14;94164.44;;;-1.58;73.75
68179;BME280;69812;42.632;23.440;2024-01-15T10:13:39;94170.91;;;-1.38;71.72
68179;BME280;69812;42.632;23.440;2024-01-15T10:16:05;94158.53;;;-1.27;70.84
68179;BME280;69812;42.632;23.440;2024-01-15T10:18:31;94166.16;;;-1.43;70.65
68179;BME280;69812;42.632;23.440;2024-01-15T10:20:57;94157.09;;;-1.31;71.54
68179;BME280;69812;42.632;23.440;2024-01-15T10:23:25;94156.94;;;-1.44;71.26
68179;BME280;69812;42.632;23.440;2024-01-15T10:25:50;94154.22;;;-1.55;71.30
68179;BME280;69812;42.632;23.440;2024-01-15T10:28:19;94147.75;;;-1.29;69.91
68179;BME280;69812;42.632;23.440;2024-01-15T10:30:44;94137.03;;;-1.33;70.79
68179;BME280;69812;42.632;23.440;2024-01-15T10:33:10;94137.28;;;-1.37;70.83
68179;BME280;69812;42.632;23.440;2024-01-15T10:35:37;94128.84;;;-1.36;71.43
68179;BME280;69812;42.632;23.440;2024-01-15T10:38:03;94130.97;;;-1.14;70.84
68179;BME280;69812;42.632;23.440;2024-01-15T10:40:29;94131.94;;;-1.02;69.78
68179;BME280;69812;42.632;23.440;2024-01-15T10:42:54;94116.94;;;-1.04;70.24
68179;BME280;69812;42.632;23.440;2024-01-15T10:45:20;94126.53;;;-1.11;70.98
68179;BME280;69812;42.632;23.440;2024-01-15T10:47:46;94109.66;;;-0.94;69.83
68179;BME280;69812;42.632;23.440;2024-01-15T10:50:12;94100.94;;;-0.89;70.07
68179;BME280;69812;42.632;23.440;2024-01-15T10:52:39;94109.56;;;-0.93;71.09
68179;BME280;69812;42.632;23.440;2024-01-15T10:55:09;94106.59;;;-0.99;71.00
68179;BME280;69812;42.632;23.440;2024-01-15T10:57:36;94105.81;;;-0.71;69.51
68179;BME280;69812;42.632;23.440;2024-01-15T11:00:02;94084.88;;;-0.45;71.13
68179;BME280;69812;42.632;23.440;2024-01-15T11:02:32;94100.91;;;-0.46;69.83
68179;BME280;69812;42.632;23.440;2024-01-15T11:04:59;94108.44;;;-0.31;68.49
68179;BME280;69812;42.632;23.440;2024-01-15T11:07:26;94092.66;;;-0.62;68.17
68179;BME280;69812;42.632;23.440;2024-01-15T11:09:51;94108.59;;;-0.20;69.12
68179;BME280;69812;42.632;23.440;2024-01-15T11:12:17;94092.34;;;-0.02;67.80
68179;BME280;69812;42.632;23.440;2024-01-15T11:14:49;94060.81;;;-0.22;66.43
68179;BME280;69812;42.632;23.440;2024-01-15T11:17:16;94102.72;;;-0.06;69.60
68179;BME280;69812;42.632;23.440;2024-01-15T11:19:45;94099.22;;;0.36;71.09
68179;BME280;69812;42.632;23.440;2024-01-15T11:25:14;94055.88;;;0.82;70.53
68179;BME280;69812;42.632;23.440;2024-01-15T11:27:44;94063.53;;;0.68;65.30
68179;BME280;69812;42.632;23.440;2024-01-15T11:30:12;94067.47;;;0.72;68.76
68179;BME280;69812;42.632;23.440;2024-01-15T11:32:39;94054.53;;;1.02;68.25
68179;BME280;69812;42.632;23.440;2024-01-15T11:35:08;94046.44;;;1.23;74.27
68179;BME280;69812;42.632;23.440;2024-01-15T11:40:21;94050.34;;;1.40;71.40
68179;BME280;69812;42.632;23.440;2024-01-15T11:42:48;94048.75;;;1.26;72.21
68179;BME280;69812;42.632;23.440;2024-01-15T11:45:18;94054.34;;;1.55;67.08
68179;BME280;69812;42.632;23.440;2024-01-15T11:50:26;94060.22;;;1.43;69.46
68179;BME280;69812;42.632;23.440;2024-01-15T11:53:03;94045.22;;;1.16;73.65
68179;BME280;69812;42.632;23.440;2024-01-15T11:55:36;94056.16;;;1.03;74.33
68179;BME280;69812;42.632;23.440;2024-01-15T11:58:08;94045.75;;;1.45;66.13
68179;BME280;69812;42.632;23.440;2024-01-15T12:00:34;94039.66;;;1.60;65.98
68179;BME280;69812;42.632;23.440;2024-01-15T12:03:00;94031.41;;;1.58;72.23
68179;BME280;69812;42.632;23.440;2024-01-15T12:05:27;94010.50;;;1.43;75.75
68179;BME280;69812;42.632;23.440;2024-01-15T12:07:52;94028.31;;;1.29;77.32
68179;BME280;69812;42.632;23.440;2024-01-15T12:10:19;94016.09;;;1.23;71.92
68179;BME280;69812;42.632;23.440;2024-01-15T12:15:25;94007.16;;;0.93;73.79
68179;BME280;69812;42.632;23.440;2024-01-15T12:17:51;94009.31;;;0.74;70.32
68179;BME280;69812;42.632;23.440;2024-01-15T12:20:17;93997.88;;;0.55;71.81
68179;BME280;69812;42.632;23.440;2024-01-15T12:22:43;93977.75;;;0.41;72.63
68179;BME280;69812;42.632;23.440;2024-01-15T12:25:09;93996.66;;;0.48;67.61
68179;BME280;69812;42.632;23.440;2024-01-15T12:27:34;94011.56;;;0.26;72.62
68179;BME280;69812;42.632;23.440;2024-01-15T12:30:00;93996.00;;;0.06;70.04
68179;BME280;69812;42.632;23.440;2024-01-15T12:32:25;93993.19;;;0.24;69.41
68179;BME280;69812;42.632;23.440;2024-01-15T12:34:51;94016.31;;;0.30;68.33
68179;BME280;69812;42.632;23.440;2024-01-15T12:37:20;94010.84;;;0.24;70.79
68179;BME280;69812;42.632;23.440;2024-01-15T12:39:45;94002.00;;;0.31;68.66
68179;BME280;69812;42.632;23.440;2024-01-15T12:42:11;94004.22;;;0.23;70.43
68179;BME280;69812;42.632;23.440;2024-01-15T12:44:39;94000.16;;;0.20;74.26
68179;BME280;69812;42.632;23.440;2024-01-15T12:47:06;93985.66;;;0.49;69.54
68179;BME280;69812;42.632;23.440;2024-01-15T12:49:31;93973.13;;;0.22;71.17
68179;BME280;69812;42.632;23.440;2024-01-15T12:51:58;94001.44;;;0.13;73.85
68179;BME280;69812;42.632;23.440;2024-01-15T12:54:24;93963.91;;;0.21;73.02